Angela, MT

4:44 PM MST on February 13, 2016 (GMT -0700)
Wiley | | Change Station
CLOSE
Current Station
Airport
Location: Miles City,
Elevation: 2628 ft
Nearby Weather Stations

Elev 2628 ft 46.43 °N, 105.88 °W | Updated 51 minutes ago

Overcast
Overcast
43 °F
Feels Like 35 °F
N
16
Wind Variable Wind from West

Today
High -- | Low -- °F
--% Chance of Precip.
Yesterday
High -- | Low -- °F
Precip. -- in
Pressure 29.90 in
Visibility 10.0 miles
Clouds Clear
Windchill 35 °F
Dew Point 41 °F
Humidity 93%
Rainfall 0.11 in
Snow Depth Not available.
7:13 AM 5:27 PM
Waxing Crescent, 35% visible
METAR KMLS 132253Z AUTO 28014KT 10SM CLR 06/05 A2984 RMK AO2 SLP125 T00610050
Pressure 29.90 in
Visibility 10.0 miles
Clouds Clear
Windchill 35 °F
Dew Point 41 °F
Humidity 93%
Rainfall 0.11 in
Snow Depth Not available.
7:13 AM 5:27 PM
Waxing Crescent, 35% visible
METAR KMLS 132253Z AUTO 28014KT 10SM CLR 06/05 A2984 RMK AO2 SLP125 T00610050

10-Day Weather Forecast

Almanac

Astronomy

Feb. 13, 2016 Rise Set
Actual Time
Civil Twilight
Nautical Twilight
Astronomical Twilight
Moon
Length of Visible Light
Length of Day
Tomorrow will be .
, % of the Moon is Illuminated

Today's Extremes

State Highs State Lows

Community

WunderPhotos

Upload Photos

1,892,705 photos uploaded!

WunderBlog® & News

Nearby

Air Quality

  Air Quality AQ Index Pollutant
Not available.

Snow Depth

Station Depth Elevation

Earthquake Activity

City Distance Mag. Time & Date
Minimum magnitude displayed is 2.5.

Coastal Water Temperatures

Place Temperature

Stations

Nearby Weather Stations

Station Location Temp. Windchill Dew Point Humidity Wind Precip. Elev Updated Type
                   

Watches & Warnings

There are currently no watches in effect.